首页
METAR-TAF:

METAR-TAF

机场 :

Goldsboro / Seymour Johnson, 北卡罗来纳州, 美国

纬度: 35-20N, 经度: 077-58W, 海拔: 33米

当前天气观测

该预报发布于50分钟前的19:26 UTC
风速16节,风向,有时为22节阵风
温度 0°C
湿度 64%
气压 1031 hPa
能見度: 16.1公里
散云层高于2800英尺

METAR: KGSB 211926Z AUTO 35016G22KT 10SM SCT028 00/M06 A3046 RMK AO2 SLP319 $

时间: 15:16 (20:16 UTC)

预报

该预报发布于7小时和16分钟前的13:00 UTC
预报有效从21日的 13点(UTC)到 22日的 19点(UTC)
风速12节,风向,有时为21节阵风
能见度10公里或以上
散云层高于2000英尺
成为
从 21日的 14点(UTC)到 21日的 15点(UTC)
风速15节,风向北转东北,有时为25节阵风
能见度10公里或以上
天空无云
成为
从 21日的 21点(UTC)到 21日的 22点(UTC)
风速3节,风向
能見度: 2201
天空无云

TAF: KGSB 211300Z 2113/2219 01012G21KT 9999 SCT020 QNH3037INS BECMG 2114/2115 02015G25KT 9999 SKC QNH3040INS BECMG 2121/2122 01009KT 9999 SKC QNH3043INS WND 35003KT AFT 2201 TX03/2120Z TNM04/2208Z

超过4000个机场的气象观测和天气预报(METAR&TAF报告)。

可查询的气象台以黄色和红色小点在地图上表示。

将鼠标移到小点上方,可查看气象台名称。

然后点击查看天气观测和预报。

如需切换地图:点击带黑十字的绿色按钮放大地图;点击带横线的绿色按钮缩小地图;或者点击绿色箭头查看邻近地区的地图。


METAR-TAF: